createdAt,value
2022-09-27T00:03:03.125Z,12.50
2022-09-27T00:06:08.106Z,12.40
2022-09-27T00:09:11.905Z,12.49
2022-09-27T00:12:15.161Z,12.49
2022-09-27T00:15:20.252Z,12.52
2022-09-27T00:18:22.913Z,12.51
2022-09-27T00:21:26.214Z,12.50
2022-09-27T00:24:28.911Z,12.52
2022-09-27T00:27:32.126Z,12.54
2022-09-27T00:30:42.354Z,12.52
2022-09-27T00:33:45.090Z,12.56
2022-09-27T00:36:48.703Z,12.53
2022-09-27T00:39:51.865Z,12.51
2022-09-27T00:42:54.897Z,12.42
2022-09-27T00:46:04.354Z,12.45
2022-09-27T00:49:14.988Z,12.42
2022-09-27T00:52:22.690Z,12.43
2022-09-27T00:55:30.595Z,12.43
2022-09-27T00:58:37.585Z,12.45
2022-09-27T01:01:42.103Z,12.47
2022-09-27T01:04:46.175Z,12.46
2022-09-27T01:07:48.896Z,12.47
2022-09-27T01:11:04.669Z,12.47
2022-09-27T01:14:39.343Z,12.46
2022-09-27T01:17:57.890Z,12.45
2022-09-27T01:21:44.791Z,12.43
2022-09-27T01:24:58.883Z,12.44
2022-09-27T01:28:16.747Z,12.34
2022-09-27T01:31:26.808Z,12.45
2022-09-27T01:34:39.346Z,12.45
2022-09-27T01:37:50.500Z,12.47
2022-09-27T01:40:57.902Z,12.44
2022-09-27T01:44:05.513Z,12.48
2022-09-27T01:47:16.131Z,12.39
2022-09-27T01:50:24.489Z,12.34
2022-09-27T01:53:33.079Z,12.29
2022-09-27T01:56:41.570Z,12.33
2022-09-27T01:59:48.213Z,12.34
2022-09-27T02:02:58.751Z,12.27
2022-09-27T02:06:04.752Z,12.24
2022-09-27T02:09:11.422Z,12.21
2022-09-27T02:12:17.778Z,12.19
2022-09-27T02:15:21.405Z,12.18
2022-09-27T02:18:34.302Z,12.20
2022-09-27T02:21:43.899Z,12.18
2022-09-27T02:24:52.261Z,12.20
2022-09-27T02:28:00.591Z,12.18
2022-09-27T02:31:03.918Z,12.18
2022-09-27T02:34:12.432Z,12.18
2022-09-27T02:37:15.891Z,12.19
2022-09-27T02:40:20.180Z,12.23
2022-09-27T02:43:29.402Z,12.22
2022-09-27T02:46:49.003Z,12.19
2022-09-27T02:50:06.897Z,12.20
2022-09-27T02:53:21.299Z,12.21
2022-09-27T02:56:27.690Z,12.21
2022-09-27T02:59:40.296Z,12.20
2022-09-27T03:02:54.278Z,12.16
2022-09-27T03:06:05.686Z,12.15
2022-09-27T03:09:15.720Z,12.14
2022-09-27T03:12:26.321Z,12.16
2022-09-27T03:15:29.083Z,12.14
2022-09-27T03:18:32.276Z,12.13
2022-09-27T03:21:36.339Z,12.15
2022-09-27T03:24:39.560Z,12.12
2022-09-27T03:27:42.378Z,12.09
2022-09-27T03:30:47.252Z,12.09
2022-09-27T03:33:49.978Z,12.10
2022-09-27T03:36:54.447Z,12.11
2022-09-27T03:39:57.143Z,12.12
2022-09-27T03:42:59.822Z,12.13
2022-09-27T03:46:02.627Z,12.11
2022-09-27T03:49:05.439Z,12.05
2022-09-27T03:52:09.968Z,12.05
2022-09-27T03:55:13.381Z,12.03
2022-09-27T03:58:16.657Z,11.99
2022-09-27T04:01:20.275Z,11.94
2022-09-27T04:04:23.130Z,11.93
2022-09-27T04:07:28.124Z,11.88
2022-09-27T04:10:31.301Z,11.82
2022-09-27T04:13:33.975Z,11.79
2022-09-27T04:16:37.180Z,11.79
2022-09-27T04:19:40.552Z,11.78
2022-09-27T04:22:45.567Z,11.76
2022-09-27T04:25:49.059Z,11.78
2022-09-27T04:29:43.186Z,11.78
2022-09-27T04:32:46.529Z,11.77
2022-09-27T04:36:07.239Z,11.61
2022-09-27T04:39:11.843Z,11.48
2022-09-27T04:42:14.611Z,11.35
2022-09-27T04:45:17.772Z,11.34
2022-09-27T04:48:21.194Z,11.29
2022-09-27T04:51:23.876Z,11.27
2022-09-27T04:54:29.356Z,11.24
2022-09-27T04:57:32.613Z,11.23
2022-09-27T05:00:35.297Z,11.25
2022-09-27T05:03:38.183Z,11.24
2022-09-27T05:06:40.842Z,11.25
2022-09-27T05:09:45.805Z,11.25
2022-09-27T05:12:48.543Z,11.26
2022-09-27T05:15:52.876Z,11.28
2022-09-27T05:18:56.980Z,11.27
2022-09-27T05:21:59.683Z,11.29
2022-09-27T05:25:03.689Z,11.32
2022-09-27T05:28:07.082Z,11.31
2022-09-27T05:31:10.794Z,11.37
2022-09-27T05:34:13.526Z,11.37
2022-09-27T05:37:16.657Z,11.39
2022-09-27T05:40:40.265Z,11.42
2022-09-27T05:43:43.932Z,11.44
2022-09-27T05:46:46.968Z,11.47
2022-09-27T05:49:50.021Z,11.52
2022-09-27T05:52:53.724Z,11.52
2022-09-27T05:55:57.731Z,11.59
2022-09-27T05:59:00.955Z,11.65
2022-09-27T06:02:03.733Z,11.74
2022-09-27T06:05:08.220Z,11.80
2022-09-27T06:08:13.305Z,11.85
2022-09-27T06:11:17.666Z,11.88
2022-09-27T06:14:20.985Z,11.91
2022-09-27T06:17:23.657Z,11.96
2022-09-27T06:20:27.286Z,12.03
2022-09-27T06:23:32.701Z,12.11
2022-09-27T06:26:37.685Z,12.14
2022-09-27T06:29:40.354Z,12.17
2022-09-27T06:32:43.578Z,12.19
2022-09-27T06:35:46.968Z,12.20
2022-09-27T06:38:49.781Z,12.18
2022-09-27T06:41:58.168Z,12.14
2022-09-27T06:45:01.391Z,12.14
2022-09-27T06:48:04.919Z,12.15
2022-09-27T06:51:08.010Z,12.21
2022-09-27T06:54:10.659Z,12.23
2022-09-27T06:57:35.445Z,12.29
2022-09-27T07:00:37.650Z,12.39
2022-09-27T07:03:41.733Z,12.46
2022-09-27T07:06:44.580Z,12.46
2022-09-27T07:09:47.300Z,12.49
2022-09-27T07:12:52.431Z,12.52
2022-09-27T07:15:55.070Z,12.64
2022-09-27T07:18:58.335Z,12.77
2022-09-27T07:22:01.003Z,12.90
2022-09-27T07:25:03.844Z,12.97
2022-09-27T07:28:09.749Z,13.10
2022-09-27T07:31:13.938Z,13.13
2022-09-27T07:34:19.001Z,13.11
2022-09-27T07:37:21.705Z,13.08
2022-09-27T07:40:24.909Z,13.04
2022-09-27T07:43:29.237Z,13.02
2022-09-27T07:46:31.969Z,12.85
2022-09-27T07:49:34.706Z,12.75
2022-09-27T07:52:41.051Z,12.73
2022-09-27T07:55:44.165Z,12.67
2022-09-27T07:58:48.180Z,12.64
2022-09-27T08:01:51.012Z,12.69
2022-09-27T08:04:53.801Z,12.61
2022-09-27T08:07:57.554Z,12.73
2022-09-27T08:11:00.755Z,12.83
2022-09-27T08:14:06.021Z,12.89
2022-09-27T08:17:11.416Z,12.97
2022-09-27T08:20:14.985Z,13.04
2022-09-27T08:23:17.784Z,13.05
2022-09-27T08:26:20.786Z,12.98
2022-09-27T08:29:24.800Z,12.93
2022-09-27T08:32:28.847Z,12.87
2022-09-27T08:35:34.173Z,12.90
2022-09-27T08:38:37.165Z,12.85
2022-09-27T08:41:46.073Z,12.84
2022-09-27T08:45:03.632Z,12.85
2022-09-27T08:48:07.708Z,12.91
2022-09-27T08:51:14.627Z,13.06
2022-09-27T08:54:22.066Z,13.27
2022-09-27T08:57:26.088Z,13.50
2022-09-27T09:00:31.005Z,13.77
2022-09-27T09:03:37.965Z,14.13
2022-09-27T09:06:44.439Z,14.36
2022-09-27T09:09:54.840Z,14.50
2022-09-27T09:13:08.768Z,14.50
2022-09-27T09:16:23.792Z,14.71
2022-09-27T09:19:45.823Z,14.88
2022-09-27T09:23:05.868Z,15.01
2022-09-27T09:26:17.155Z,15.13
2022-09-27T09:29:37.493Z,15.27
2022-09-27T09:32:56.179Z,15.15
2022-09-27T09:36:05.224Z,15.19
2022-09-27T09:39:15.421Z,15.27
2022-09-27T09:42:25.460Z,15.37
2022-09-27T09:45:32.077Z,15.60
2022-09-27T09:48:42.193Z,15.68
2022-09-27T09:51:50.307Z,15.68
2022-09-27T09:54:58.779Z,15.63
2022-09-27T09:58:08.172Z,15.48
2022-09-27T10:01:18.538Z,15.52
2022-09-27T10:04:25.418Z,15.44
2022-09-27T10:07:30.038Z,15.48
2022-09-27T10:10:33.187Z,15.52
2022-09-27T10:13:37.238Z,15.60
2022-09-27T10:16:43.812Z,15.59
2022-09-27T10:19:49.909Z,15.54
2022-09-27T10:22:57.024Z,15.52
2022-09-27T10:26:02.067Z,15.44
2022-09-27T10:29:23.385Z,15.41
2022-09-27T10:32:31.375Z,15.46
2022-09-27T10:35:39.130Z,15.60
2022-09-27T10:38:53.949Z,15.53
2022-09-27T10:41:57.009Z,15.55
2022-09-27T10:44:59.858Z,15.35
2022-09-27T10:48:03.816Z,15.47
2022-09-27T10:51:20.676Z,15.86
2022-09-27T10:54:28.012Z,15.92
2022-09-27T10:57:32.026Z,15.90
2022-09-27T11:00:37.538Z,15.90
2022-09-27T11:03:48.996Z,15.87
2022-09-27T11:06:53.418Z,15.92
2022-09-27T11:10:03.410Z,15.79
2022-09-27T11:13:12.851Z,15.56
2022-09-27T11:16:31.225Z,15.27
2022-09-27T11:20:00.531Z,15.07
2022-09-27T11:23:21.797Z,14.92
2022-09-27T11:26:38.473Z,14.95
2022-09-27T11:29:51.822Z,14.99
2022-09-27T11:33:20.853Z,15.06
2022-09-27T11:36:36.784Z,15.07
2022-09-27T11:39:55.305Z,15.09
2022-09-27T11:43:19.327Z,15.15
2022-09-27T11:46:36.614Z,15.26
2022-09-27T11:50:13.530Z,15.40
2022-09-27T11:53:25.692Z,15.57
2022-09-27T11:56:40.656Z,15.78
2022-09-27T12:00:06.844Z,15.80
2022-09-27T12:03:52.371Z,15.80
2022-09-27T12:07:02.548Z,15.70
2022-09-27T12:10:13.872Z,15.62
2022-09-27T12:13:25.108Z,15.64
2022-09-27T12:16:28.988Z,15.80
2022-09-27T12:19:36.943Z,15.90
2022-09-27T12:22:58.615Z,15.92
2022-09-27T12:26:07.305Z,16.02
2022-09-27T12:29:16.349Z,15.93
2022-09-27T12:32:25.148Z,16.07
2022-09-27T12:35:30.637Z,16.08
2022-09-27T12:38:41.348Z,16.06
2022-09-27T12:41:51.394Z,16.08
2022-09-27T12:44:55.960Z,16.14
2022-09-27T12:48:09.397Z,16.11
2022-09-27T12:51:15.083Z,16.12
2022-09-27T12:54:38.989Z,16.05
2022-09-27T12:57:51.314Z,15.93
2022-09-27T13:01:00.970Z,16.02
2022-09-27T13:04:25.345Z,16.02
2022-09-27T13:07:44.030Z,15.98
2022-09-27T13:10:58.640Z,15.92
2022-09-27T13:14:04.355Z,15.96
2022-09-27T13:17:33.789Z,16.00
2022-09-27T13:20:48.950Z,16.01
2022-09-27T13:23:52.489Z,16.05
2022-09-27T13:26:55.854Z,16.04
2022-09-27T13:30:49.598Z,15.89
2022-09-27T13:33:54.978Z,15.87
2022-09-27T13:36:57.757Z,15.84
2022-09-27T13:40:15.231Z,15.80
2022-09-27T13:43:48.898Z,15.89
2022-09-27T13:46:56.444Z,15.91
2022-09-27T13:50:15.862Z,15.83
2022-09-27T13:53:26.309Z,15.98
2022-09-27T13:56:52.820Z,15.91
2022-09-27T14:00:00.662Z,15.91
2022-09-27T14:03:07.847Z,15.93
2022-09-27T14:06:16.477Z,15.96
2022-09-27T14:09:22.441Z,15.84
2022-09-27T14:12:29.781Z,15.80
2022-09-27T14:15:55.205Z,15.71
2022-09-27T14:18:59.581Z,15.64
2022-09-27T14:22:03.657Z,15.59
2022-09-27T14:25:18.821Z,15.46
2022-09-27T14:28:24.090Z,15.33
2022-09-27T14:31:27.727Z,15.15
2022-09-27T14:34:30.673Z,14.98
2022-09-27T14:37:36.321Z,14.78
2022-09-27T14:40:44.689Z,14.69
2022-09-27T14:43:50.734Z,14.43
2022-09-27T14:47:10.214Z,14.37
2022-09-27T14:50:20.033Z,14.34
2022-09-27T14:53:26.429Z,14.51
2022-09-27T14:56:32.457Z,14.70
2022-09-27T14:59:37.853Z,14.76
2022-09-27T15:02:42.621Z,14.90
2022-09-27T15:05:46.018Z,14.90
2022-09-27T15:08:50.442Z,15.01
2022-09-27T15:11:56.786Z,15.13
2022-09-27T15:15:00.183Z,15.17
2022-09-27T15:18:04.840Z,15.17
2022-09-27T15:21:09.071Z,15.12
2022-09-27T15:24:41.322Z,15.06
2022-09-27T15:27:49.619Z,15.09
2022-09-27T15:30:56.154Z,14.98
2022-09-27T15:33:59.518Z,14.95
2022-09-27T15:37:03.782Z,15.00
2022-09-27T15:41:05.960Z,15.06
2022-09-27T15:44:36.752Z,15.20
2022-09-27T15:47:51.265Z,15.32
2022-09-27T15:50:54.430Z,15.33
2022-09-27T15:53:57.141Z,15.33
2022-09-27T15:57:05.394Z,15.26
2022-09-27T16:00:13.546Z,15.21
2022-09-27T16:03:16.993Z,15.21
2022-09-27T16:06:20.227Z,15.08
2022-09-27T16:09:23.909Z,14.94
2022-09-27T16:12:30.287Z,14.81
2022-09-27T16:15:33.301Z,14.65
2022-09-27T16:18:36.167Z,14.48
2022-09-27T16:21:39.131Z,14.34
2022-09-27T16:24:41.843Z,14.20
2022-09-27T16:27:46.644Z,14.04
2022-09-27T16:30:49.619Z,13.96
2022-09-27T16:33:52.559Z,13.84
2022-09-27T16:36:55.263Z,13.63
2022-09-27T16:39:58.272Z,13.72
2022-09-27T16:43:05.131Z,13.66
2022-09-27T16:46:13.181Z,13.60
2022-09-27T16:49:29.887Z,13.54
2022-09-27T16:52:34.268Z,13.50
2022-09-27T16:55:37.456Z,13.45
2022-09-27T16:58:41.649Z,13.38
2022-09-27T17:01:44.839Z,13.28
2022-09-27T17:04:47.955Z,13.19
2022-09-27T17:07:51.986Z,13.02
2022-09-27T17:10:57.163Z,12.89
2022-09-27T17:14:02.220Z,12.81
2022-09-27T17:17:04.938Z,12.72
2022-09-27T17:20:09.439Z,12.69
2022-09-27T17:23:12.763Z,12.58
2022-09-27T17:26:17.923Z,12.51
2022-09-27T17:29:22.320Z,12.55
2022-09-27T17:32:25.154Z,12.43
2022-09-27T17:35:27.861Z,12.34
2022-09-27T17:38:30.662Z,12.27
2022-09-27T17:41:39.579Z,11.97
2022-09-27T17:44:44.279Z,12.07
2022-09-27T17:48:04.512Z,12.08
2022-09-27T17:51:07.557Z,12.05
2022-09-27T17:54:11.838Z,12.08
2022-09-27T17:57:14.899Z,12.08
2022-09-27T18:00:20.366Z,12.00
2022-09-27T18:03:23.314Z,12.08
2022-09-27T18:06:27.206Z,11.96
2022-09-27T18:09:29.923Z,12.11
2022-09-27T18:12:33.004Z,12.12
2022-09-27T18:15:37.882Z,12.07
2022-09-27T18:18:42.226Z,12.03
2022-09-27T18:21:45.576Z,11.87
2022-09-27T18:24:48.284Z,11.85
2022-09-27T18:27:52.235Z,11.76
2022-09-27T18:30:56.839Z,11.77
2022-09-27T18:33:59.846Z,11.87
2022-09-27T18:37:02.616Z,11.92
2022-09-27T18:40:05.997Z,11.87
2022-09-27T18:43:08.766Z,11.79
2022-09-27T18:46:34.388Z,11.80
2022-09-27T18:49:38.124Z,11.77
2022-09-27T18:52:41.677Z,11.63
2022-09-27T18:55:44.401Z,11.51
2022-09-27T18:58:47.077Z,11.41
2022-09-27T19:01:51.681Z,11.36
2022-09-27T19:04:54.407Z,11.28
2022-09-27T19:07:57.203Z,11.34
2022-09-27T19:11:06.183Z,11.36
2022-09-27T19:14:08.915Z,11.40
2022-09-27T19:17:12.959Z,11.42
2022-09-27T19:20:15.630Z,11.48
2022-09-27T19:23:18.527Z,11.50
2022-09-27T19:26:23.640Z,11.49
2022-09-27T19:29:26.678Z,11.53
2022-09-27T19:32:31.066Z,11.47
2022-09-27T19:35:33.761Z,11.54
2022-09-27T19:38:38.422Z,11.48
2022-09-27T19:41:41.124Z,11.54
2022-09-27T19:44:43.998Z,11.55
2022-09-27T19:47:48.298Z,11.50
2022-09-27T19:50:58.062Z,11.40
2022-09-27T19:54:00.782Z,11.25
2022-09-27T19:57:03.646Z,11.11
2022-09-27T20:00:08.254Z,10.98
2022-09-27T20:03:13.217Z,10.80
2022-09-27T20:06:19.129Z,10.67
2022-09-27T20:09:22.673Z,10.57
2022-09-27T20:12:25.417Z,10.47
2022-09-27T20:15:28.092Z,10.37
2022-09-27T20:18:32.307Z,10.29
2022-09-27T20:21:35.019Z,10.21
2022-09-27T20:24:37.839Z,10.20
2022-09-27T20:27:40.756Z,10.12
2022-09-27T20:30:43.770Z,10.12
2022-09-27T20:33:50.705Z,10.10
2022-09-27T20:36:53.597Z,10.12
2022-09-27T20:39:56.339Z,10.12
2022-09-27T20:42:59.120Z,10.03
2022-09-27T20:46:02.867Z,9.94
2022-09-27T20:49:09.034Z,9.84
2022-09-27T20:52:11.768Z,9.81
2022-09-27T20:55:14.621Z,9.78
2022-09-27T20:58:17.563Z,9.66
2022-09-27T21:01:21.859Z,9.64
2022-09-27T21:04:26.043Z,9.70
2022-09-27T21:07:28.718Z,9.44
2022-09-27T21:10:31.444Z,9.56
2022-09-27T21:13:34.451Z,9.54
2022-09-27T21:16:37.192Z,9.47
2022-09-27T21:19:41.710Z,9.45
2022-09-27T21:22:44.755Z,9.43
2022-09-27T21:25:49.234Z,9.40
2022-09-27T21:28:53.511Z,9.35
2022-09-27T21:31:56.279Z,9.34
2022-09-27T21:35:01.446Z,9.36
2022-09-27T21:38:04.422Z,9.37
2022-09-27T21:41:09.014Z,9.36
2022-09-27T21:44:12.725Z,9.38
2022-09-27T21:47:15.491Z,9.45
2022-09-27T21:50:19.582Z,9.39
2022-09-27T21:53:22.282Z,9.40
2022-09-27T21:56:27.893Z,9.43
2022-09-27T21:59:30.588Z,9.45
2022-09-27T22:02:33.556Z,9.55
2022-09-27T22:05:44.738Z,9.60
2022-09-27T22:08:48.484Z,9.70
2022-09-27T22:11:51.859Z,9.79
2022-09-27T22:14:54.569Z,9.86
2022-09-27T22:17:57.574Z,9.95
2022-09-27T22:21:06.991Z,9.90
2022-09-27T22:24:13.425Z,10.09
2022-09-27T22:27:16.365Z,10.15
2022-09-27T22:30:19.142Z,10.17
2022-09-27T22:33:21.835Z,10.16
2022-09-27T22:36:28.351Z,10.11
2022-09-27T22:39:31.365Z,10.02
2022-09-27T22:42:34.057Z,10.19
2022-09-27T22:45:36.917Z,10.23
2022-09-27T22:48:40.063Z,10.29
2022-09-27T22:51:44.125Z,10.32
2022-09-27T22:54:47.108Z,10.40
2022-09-27T22:57:49.799Z,10.46
2022-09-27T23:00:52.574Z,10.47
2022-09-27T23:03:56.019Z,10.49
2022-09-27T23:07:00.467Z,10.54
2022-09-27T23:10:03.171Z,10.57
2022-09-27T23:13:06.259Z,10.60
2022-09-27T23:16:11.251Z,10.62
2022-09-27T23:19:16.454Z,10.67
2022-09-27T23:22:20.838Z,10.70
2022-09-27T23:25:23.588Z,10.75
2022-09-27T23:28:26.664Z,10.79
2022-09-27T23:31:31.209Z,10.81
2022-09-27T23:34:34.328Z,10.86
2022-09-27T23:37:38.552Z,10.89
2022-09-27T23:40:42.200Z,10.93
2022-09-27T23:43:45.499Z,10.88
2022-09-27T23:46:48.422Z,10.97
2022-09-27T23:49:51.250Z,11.00
2022-09-27T23:52:55.304Z,11.02
2022-09-27T23:56:02.882Z,11.02
2022-09-27T23:59:05.991Z,11.03
